Time;durP1;ratioP1;P1;durP2;ratioP2;P2;SDS_P1;SDS_P2;PMS_P1;PMS_P2;Temp;Humidity;BMP_temperature;BMP_pressure;BME280_temperature;BME280_humidity;BME280_pressure;Samples;Min_cycle;Max_cycle;Signal;HPM_P1;HPM_P2
2023/12/25 00:04:23;;;;;;;21.05;12.85;;;;;;;8.79;60.52;97367.69;10285371;28;20033;-51
2023/12/25 00:09:22;;;;;;;20.10;14.38;;;;;;;8.07;61.00;97268.53;10283688;28;20567;-51
2023/12/25 00:14:21;;;;;;;21.92;11.40;;;;;;;8.59;60.46;97352.16;10283942;28;20049;-50
2023/12/25 00:19:20;;;;;;;19.70;12.77;;;;;;;8.62;60.26;97337.50;10281866;28;20133;-50
2023/12/25 00:24:19;;;;;;;24.10;13.07;;;;;;;8.75;59.60;97330.59;10282684;28;20556;-52
2023/12/25 00:29:18;;;;;;;34.78;20.27;;;;;;;8.37;60.11;97284.06;10281543;28;20041;-50
2023/12/25 00:34:17;;;;;;;24.55;16.27;;;;;;;8.75;59.42;97332.31;10281913;28;20726;-51
2023/12/25 00:39:16;;;;;;;30.75;21.17;;;;;;;8.73;59.78;97347.84;10283279;28;20038;-51
2023/12/25 00:44:15;;;;;;;23.63;14.00;;;;;;;8.59;59.86;97344.41;10280406;28;20375;-50
2023/12/25 00:49:15;;;;;;;17.92;12.50;;;;;;;8.68;60.15;97368.53;10282906;28;20117;-51
2023/12/25 00:54:14;;;;;;;18.27;11.98;;;;;;;8.70;59.98;97359.06;10281886;28;20125;-51
2023/12/25 00:59:13;;;;;;;17.15;9.55;;;;;;;8.39;59.47;97287.47;10283937;28;20120;-52
2023/12/25 01:04:12;;;;;;;14.73;7.97;;;;;;;8.65;59.11;97323.72;10283602;28;20053;-50
2023/12/25 01:09:11;;;;;;;19.13;9.18;;;;;;;8.66;58.94;97302.16;10282300;28;20053;-50
2023/12/25 01:14:10;;;;;;;14.80;9.15;;;;;;;8.76;58.54;97303.84;10283960;28;20509;-50
2023/12/25 01:19:11;;;;;;;;;;;;;;;8.82;59.31;97332.31;10282467;28;20613;-50
2023/12/25 01:24:10;;;;;;;18.90;11.50;;;;;;;8.67;57.73;97306.47;10283300;28;19960;-52
2023/12/25 01:29:09;;;;;;;22.25;10.95;;;;;;;8.98;57.12;97317.63;10282438;28;20022;-49
2023/12/25 01:34:08;;;;;;;15.45;7.32;;;;;;;9.11;56.97;97328.81;10281416;28;20124;-53
2023/12/25 01:39:07;;;;;;;13.45;7.95;;;;;;;9.16;56.10;97298.63;10282856;28;20122;-50
2023/12/25 01:44:06;;;;;;;9.50;5.97;;;;;;;9.23;56.13;97322.75;10286975;28;20064;-50
2023/12/25 01:49:05;;;;;;;7.28;5.80;;;;;;;9.23;55.50;97278.72;10290366;28;20057;-49
2023/12/25 01:54:06;;;;;;;7.78;5.57;;;;;;;9.46;54.57;97286.44;10289116;28;20065;-50
2023/12/25 01:59:05;;;;;;;8.40;6.20;;;;;;;9.69;53.51;97273.41;10289423;28;20053;-51
2023/12/25 02:04:04;;;;;;;15.25;8.93;;;;;;;9.68;53.36;97253.56;10289495;28;20029;-49
2023/12/25 02:09:03;;;;;;;20.83;12.93;;;;;;;9.77;52.86;97280.28;10286939;28;20049;-50
2023/12/25 02:14:02;;;;;;;10.55;6.90;;;;;;;9.93;51.86;97264.63;10288205;28;20084;-50
2023/12/25 02:19:03;;;;;;;7.53;4.45;;;;;;;10.25;49.70;97235.00;10288168;28;20053;-51
2023/12/25 02:24:07;;;;;;;7.72;4.90;;;;;;;10.70;48.46;97257.09;10288192;28;20072;-50
2023/12/25 02:29:06;;;;;;;7.95;5.70;;;;;;;10.94;47.69;97263.81;10289238;28;20513;-50
2023/12/25 02:34:05;;;;;;;7.25;4.95;;;;;;;11.21;46.15;97259.19;10285217;28;20536;-50
2023/12/25 02:39:04;;;;;;;24.15;18.75;;;;;;;11.52;45.08;97287.41;10288024;28;20109;-50
2023/12/25 02:44:03;;;;;;;7.10;6.38;;;;;;;11.54;44.21;97238.88;10287535;28;20025;-50
2023/12/25 02:49:02;;;;;;;;;;;;;;;11.92;43.47;97294.69;10287545;28;20061;-50
2023/12/25 02:54:01;;;;;;;8.68;4.57;;;;;;;11.96;43.37;97280.75;10287586;28;19928;-52
2023/12/25 02:59:00;;;;;;;6.63;4.95;;;;;;;12.04;42.47;97297.09;10288525;28;20029;-52
2023/12/25 03:03:59;;;;;;;8.45;5.28;;;;;;;12.25;42.54;97311.53;10285718;28;20121;-50
2023/12/25 03:08:58;;;;;;;12.40;4.60;;;;;;;12.22;42.26;97315.03;10287200;28;20022;-50
2023/12/25 03:13:57;;;;;;;8.18;5.80;;;;;;;12.46;41.56;97312.97;10287702;28;21642;-52
2023/12/25 03:18:56;;;;;;;8.63;5.55;;;;;;;12.47;41.57;97262.69;10286522;28;20033;-49
2023/12/25 03:23:54;;;;;;;9.32;5.15;;;;;;;12.66;40.84;97316.13;10286351;28;20052;-50
2023/12/25 03:28:53;;;;;;;7.88;5.20;;;;;;;12.81;41.06;97330.63;10287429;28;20541;-49
2023/12/25 03:33:52;;;;;;;7.75;4.57;;;;;;;12.35;39.93;97294.97;10285825;28;20560;-50
2023/12/25 03:38:51;;;;;;;8.00;5.85;;;;;;;12.71;39.76;97314.31;10285966;28;20445;-51
2023/12/25 03:43:50;;;;;;;7.18;5.90;;;;;;;12.72;39.30;97310.84;10284873;28;20068;-51
2023/12/25 03:48:50;;;;;;;7.35;6.53;;;;;;;12.90;38.89;97308.78;10286245;28;20073;-48
2023/12/25 03:53:49;;;;;;;7.95;5.10;;;;;;;13.03;38.32;97312.91;10284383;28;20065;-50
2023/12/25 03:58:48;;;;;;;7.43;5.10;;;;;;;12.94;37.83;97294.84;10285497;28;20113;-51
2023/12/25 04:03:47;;;;;;;7.25;5.10;;;;;;;13.06;37.58;97289.41;10284980;28;20032;-49
2023/12/25 04:08:46;;;;;;;6.65;4.50;;;;;;;13.27;37.28;97342.00;10285318;28;20161;-50
2023/12/25 04:13:44;;;;;;;5.63;5.07;;;;;;;13.52;36.67;97345.03;10283193;28;20133;-51
2023/12/25 04:18:43;;;;;;;8.15;5.32;;;;;;;13.35;35.50;97265.41;10284464;28;20212;-50
2023/12/25 04:23:42;;;;;;;6.10;5.50;;;;;;;13.78;36.20;97321.06;10281766;28;20160;-51
2023/12/25 04:28:42;;;;;;;7.70;5.22;;;;;;;13.75;35.65;97334.19;10283822;28;20130;-51
2023/12/25 04:33:41;;;;;;;7.18;5.00;;;;;;;13.77;35.10;97320.22;10282107;28;20151;-51
2023/12/25 04:38:40;;;;;;;;;;;;;;;14.08;36.08;97345.63;10283565;28;20508;-50
2023/12/25 04:43:39;;;;;;;7.05;5.50;;;;;;;13.85;36.03;97346.13;10283412;28;20452;-49
2023/12/25 04:48:38;;;;;;;7.03;5.93;;;;;;;13.49;36.56;97308.56;10284178;28;20057;-50
2023/12/25 04:53:37;;;;;;;7.97;6.57;;;;;;;13.52;37.41;97332.84;10283174;28;20109;-49
2023/12/25 04:58:37;;;;;;;11.13;5.93;;;;;;;13.61;36.94;97324.03;10282825;28;20061;-50
2023/12/25 05:03:37;;;;;;;8.85;6.75;;;;;;;12.84;36.72;97256.84;10282622;28;20121;-50
2023/12/25 05:08:36;;;;;;;9.68;5.65;;;;;;;13.31;36.80;97322.84;10283158;28;20129;-50
2023/12/25 05:13:35;;;;;;;7.60;6.65;;;;;;;13.57;37.38;97346.66;10282640;28;20034;-49
2023/12/25 05:18:33;;;;;;;8.27;6.68;;;;;;;13.29;38.17;97298.53;10289025;28;20026;-49
2023/12/25 05:23:33;;;;;;;11.63;6.25;;;;;;;13.12;38.16;97324.91;10290136;28;20038;-49
2023/12/25 05:28:31;;;;;;;;;;;;;;;13.10;38.08;97340.56;10290025;28;20074;-50
2023/12/25 05:33:30;;;;;;;8.45;6.07;;;;;;;13.07;38.51;97322.41;10286092;28;19999;-48
2023/12/25 05:38:29;;;;;;;9.75;6.85;;;;;;;12.88;38.40;97305.34;10289976;28;20030;-51
2023/12/25 05:43:29;;;;;;;14.32;9.77;;;;;;;13.07;38.84;97353.66;10288185;28;20061;-50
2023/12/25 05:48:28;;;;;;;8.65;5.93;;;;;;;12.93;38.89;97353.03;10289632;28;20134;-51
2023/12/25 05:53:27;;;;;;;8.63;5.78;;;;;;;12.24;39.15;97239.59;10290041;28;20140;-50
2023/12/25 05:58:25;;;;;;;8.32;5.97;;;;;;;12.88;38.75;97360.03;10289539;28;20108;-49
2023/12/25 06:03:24;;;;;;;9.35;6.70;;;;;;;12.85;38.40;97383.53;10285223;28;20112;-51
2023/12/25 06:08:23;;;;;;;7.30;6.25;;;;;;;12.87;38.42;97376.56;10288736;28;20489;-50
2023/12/25 06:13:23;;;;;;;9.43;6.30;;;;;;;12.92;38.26;97398.19;10286344;28;20163;-50
2023/12/25 06:18:21;;;;;;;;;;;;;;;13.06;38.20;97414.44;10283689;28;20118;-49
2023/12/25 06:23:20;;;;;;;10.45;6.22;;;;;;;12.94;37.90;97396.41;10286600;28;19995;-51
2023/12/25 06:28:19;;;;;;;9.63;6.38;;;;;;;13.13;37.89;97412.59;10285178;28;20033;-50
2023/12/25 06:33:19;;;;;;;8.15;5.60;;;;;;;12.95;37.33;97395.50;10287290;28;20133;-49
2023/12/25 06:38:18;;;;;;;9.10;6.15;;;;;;;12.98;37.50;97348.59;10284928;28;20460;-49
2023/12/25 06:43:17;;;;;;;6.47;5.85;;;;;;;13.37;37.79;97424.34;10286732;28;20528;-51
2023/12/25 06:48:16;;;;;;;11.18;7.28;;;;;;;13.34;37.26;97430.47;10284689;28;20034;-51
2023/12/25 06:53:15;;;;;;;9.40;7.20;;;;;;;13.18;37.05;97365.63;10284552;28;20826;-52
2023/12/25 06:58:14;;;;;;;8.13;6.22;;;;;;;13.26;36.71;97380.25;10283152;28;20919;-51
2023/12/25 07:03:13;;;;;;;12.90;7.38;;;;;;;13.63;36.98;97420.44;10283417;28;20922;-50
2023/12/25 07:08:12;;;;;;;8.13;6.30;;;;;;;13.75;36.57;97408.03;10283220;28;20048;-50
2023/12/25 07:13:11;;;;;;;9.40;6.05;;;;;;;13.92;36.40;97423.34;10285007;28;20505;-51
2023/12/25 07:18:10;;;;;;;6.88;5.90;;;;;;;13.97;36.11;97415.44;10284650;28;20109;-50
2023/12/25 07:23:09;;;;;;;8.35;6.63;;;;;;;13.72;35.78;97340.28;10284383;28;20053;-50
2023/12/25 07:28:08;;;;;;;10.75;7.88;;;;;;;14.36;35.77;97433.78;10283569;28;20042;-50
2023/12/25 07:33:07;;;;;;;9.55;8.05;;;;;;;14.18;35.96;97435.88;10284964;28;20609;-49
2023/12/25 07:38:06;;;;;;;;;;;;;;;14.18;36.40;97435.03;10286102;28;20053;-50
2023/12/25 07:43:07;;;;;;;10.43;7.38;;;;;;;14.16;35.57;97428.97;10282168;28;20019;-50
2023/12/25 07:48:06;;;;;;;8.77;7.88;;;;;;;14.05;35.43;97376.13;10280495;28;20489;-49
2023/12/25 07:53:05;;;;;;;;;;;;;;;14.60;34.81;97440.22;10282625;28;20068;-49
2023/12/25 07:58:05;;;;;;;7.37;6.50;;;;;;;14.78;34.19;97444.19;10277857;28;19960;-51
2023/12/25 08:03:04;;;;;;;10.65;6.72;;;;;;;14.79;33.94;97432.84;10277533;28;20545;-49
2023/12/25 08:08:05;;;;;;;7.55;6.60;;;;;;;14.90;33.90;97438.69;10283060;28;20414;-49
2023/12/25 08:13:04;;;;;;;7.25;6.03;;;;;;;14.93;33.58;97430.78;10283393;28;20067;-49
2023/12/25 08:18:03;;;;;;;;;;;;;;;15.19;32.75;97453.66;10283430;28;20054;-50
2023/12/25 08:23:02;;;;;;;7.47;6.40;;;;;;;15.33;32.30;97455.09;10281377;28;20028;-51
2023/12/25 08:28:02;;;;;;;9.00;7.05;;;;;;;15.50;32.01;97444.22;10295244;28;20800;-52
2023/12/25 08:33:01;;;;;;;8.35;6.38;;;;;;;15.60;32.27;97416.91;10324170;28;20505;-51
2023/12/25 08:38:00;;;;;;;;;;;;;;;15.88;31.61;97443.25;10323474;28;20473;-49
2023/12/25 08:42:58;;;;;;;7.00;6.38;;;;;;;15.96;31.33;97420.31;10322692;28;19913;-51
2023/12/25 08:47:57;;;;;;;;;;;;;;;16.15;31.13;97425.03;10321834;28;20682;-50
2023/12/25 08:52:56;;;;;;;8.00;6.60;;;;;;;16.25;29.96;97416.00;10348510;28;19923;-52
2023/12/25 08:57:55;;;;;;;6.43;5.80;;;;;;;16.51;30.71;97384.69;10330585;28;20043;-51
2023/12/25 09:02:54;;;;;;;;;;;;;;;16.78;30.17;97417.94;10316839;28;20152;-51
2023/12/25 09:07:53;;;;;;;6.85;6.25;;;;;;;16.79;29.42;97407.38;10317709;28;20008;-52
2023/12/25 09:12:52;;;;;;;;;;;;;;;17.02;29.95;97400.59;10320103;28;20045;-50
2023/12/25 09:17:51;;;;;;;8.35;7.13;;;;;;;16.95;30.04;97381.56;10320710;28;20008;-50
2023/12/25 09:22:49;;;;;;;;;;;;;;;17.11;29.66;97406.38;10319660;28;20033;-51
2023/12/25 09:27:49;;;;;;;8.27;6.60;;;;;;;16.59;28.96;97321.56;10322021;28;19928;-51
2023/12/25 09:32:48;;;;;;;;;;;;;;;17.21;29.36;97396.44;10315389;28;20128;-52
2023/12/25 09:37:47;;;;;;;7.18;6.47;;;;;;;17.24;29.24;97385.88;10315542;28;20004;-52
2023/12/25 09:42:48;;;;;;;;;;;;;;;17.30;29.17;97388.28;10316344;28;20750;-51
2023/12/25 09:47:49;;;;;;;7.72;6.90;;;;;;;17.36;29.05;97387.22;10317152;28;20020;-52
2023/12/25 09:52:48;;;;;;;6.68;6.00;;;;;;;17.29;28.22;97367.34;10318037;28;20488;-50
2023/12/25 09:57:47;;;;;;;;;;;;;;;17.48;27.99;97378.91;10320970;28;20384;-49
2023/12/25 10:02:49;;;;;;;7.40;6.50;;;;;;;17.48;28.52;97360.56;10319809;28;20011;-49
2023/12/25 10:07:48;;;;;;;10.07;7.03;;;;;;;17.37;28.63;97351.34;10324971;28;20120;-51
2023/12/25 10:12:47;;;;;;;8.15;6.85;;;;;;;17.32;27.91;97320.03;10327872;28;20571;-50
2023/12/25 10:17:45;;;;;;;;;;;;;;;17.72;28.54;97360.59;10327760;28;20797;-51
2023/12/25 10:22:44;;;;;;;7.03;6.33;;;;;;;17.68;27.88;97354.63;10329414;28;20426;-52
2023/12/25 10:27:44;;;;;;;;;;;;;;;17.74;27.79;97346.50;10329639;28;20385;-51
2023/12/25 10:32:43;;;;;;;9.43;7.15;;;;;;;17.75;27.46;97331.59;10329839;28;20009;-50
2023/12/25 10:37:42;;;;;;;7.22;6.45;;;;;;;17.85;27.23;97326.94;10327728;28;20065;-53
2023/12/25 10:42:41;;;;;;;6.65;5.97;;;;;;;17.64;26.45;97304.94;10325707;28;20042;-52
2023/12/25 10:47:41;;;;;;;;;;;;;;;17.90;26.42;97335.50;10327604;28;20761;-52
2023/12/25 10:52:43;;;;;;;9.73;8.30;;;;;;;18.07;26.73;97338.31;10327203;28;20376;-50
2023/12/25 10:57:42;;;;;;;6.40;5.90;;;;;;;18.16;27.14;97337.13;10325822;28;20124;-52
2023/12/25 11:02:41;;;;;;;6.28;5.70;;;;;;;18.15;26.81;97317.00;10326354;28;20053;-50
2023/12/25 11:07:41;;;;;;;13.38;6.65;;;;;;;18.38;27.21;97355.53;10329437;28;20139;-52
2023/12/25 11:12:40;;;;;;;6.50;6.00;;;;;;;18.45;26.61;97354.38;10327787;28;20647;-50
2023/12/25 11:17:39;;;;;;;8.00;6.72;;;;;;;18.46;26.91;97366.63;10326817;28;20500;-50
2023/12/25 11:22:41;;;;;;;7.10;5.60;;;;;;;18.48;27.07;97369.16;10327258;28;20081;-53
2023/12/25 11:27:41;;;;;;;8.30;7.22;;;;;;;18.49;26.62;97370.91;10326907;28;20137;-51
2023/12/25 11:32:45;;;;;;;8.90;6.88;;;;;;;18.36;27.21;97323.22;10326851;28;20548;-50
2023/12/25 11:37:44;;;;;;;6.80;5.90;;;;;;;18.49;27.13;97337.59;10326418;28;20075;-49
2023/12/25 11:42:43;;;;;;;8.20;6.13;;;;;;;17.41;27.09;97164.13;10323347;28;20031;-50
2023/12/25 11:47:44;;;;;;;;;;;;;;;18.60;27.30;97351.16;10325649;28;20025;-51
2023/12/25 11:52:46;;;;;;;7.10;6.28;;;;;;;18.50;26.77;97355.06;10325840;28;20000;-49
2023/12/25 11:57:45;;;;;;;8.02;6.30;;;;;;;18.48;26.62;97348.16;10326233;28;20049;-51
2023/12/25 12:02:45;;;;;;;8.85;6.55;;;;;;;18.48;27.25;97337.63;10325699;28;20101;-49
2023/12/25 12:07:44;;;;;;;7.95;6.68;;;;;;;18.43;27.34;97308.91;10325678;28;20116;-49
2023/12/25 12:12:43;;;;;;;7.35;6.68;;;;;;;18.54;27.47;97330.38;10325249;28;20049;-50
2023/12/25 12:17:42;;;;;;;8.48;6.75;;;;;;;18.37;26.93;97324.94;10325501;28;20033;-49
2023/12/25 12:22:41;;;;;;;8.93;8.07;;;;;;;18.44;26.72;97344.78;10324604;28;20081;-51
2023/12/25 12:27:41;;;;;;;7.55;6.60;;;;;;;18.34;27.11;97315.41;10324350;28;20041;-50
2023/12/25 12:32:41;;;;;;;8.70;7.15;;;;;;;18.24;27.78;97289.56;10324962;28;20048;-50
2023/12/25 12:37:42;;;;;;;6.63;6.03;;;;;;;18.59;27.54;97341.53;10324067;28;20598;-51
2023/12/25 12:42:41;;;;;;;7.18;6.47;;;;;;;17.66;27.25;97188.50;10317239;28;20120;-50
2023/12/25 12:47:40;;;;;;;6.45;5.75;;;;;;;18.69;27.40;97359.59;10323097;28;20108;-52
2023/12/25 12:52:39;;;;;;;6.82;6.32;;;;;;;18.61;27.60;97360.75;10320915;28;20043;-49
2023/12/25 12:57:39;;;;;;;7.70;6.80;;;;;;;18.51;27.55;97351.53;10323903;28;20508;-52
2023/12/25 13:02:38;;;;;;;7.38;6.47;;;;;;;18.08;27.60;97298.03;10316547;28;20124;-50
2023/12/25 13:07:37;;;;;;;8.27;7.32;;;;;;;18.17;27.75;97305.56;10319225;28;20144;-50
2023/12/25 13:12:36;;;;;;;11.23;7.65;;;;;;;18.28;27.91;97330.56;10321822;28;20115;-51
2023/12/25 13:17:35;;;;;;;7.95;6.63;;;;;;;18.10;27.97;97311.94;10320931;28;20061;-49
2023/12/25 13:22:34;;;;;;;7.20;6.60;;;;;;;18.24;28.34;97365.72;10322427;28;20077;-50
2023/12/25 13:27:33;;;;;;;8.73;6.70;;;;;;;17.92;28.02;97329.25;10321056;28;20037;-49
2023/12/25 13:32:32;;;;;;;9.43;7.50;;;;;;;18.35;28.20;97402.94;10321042;28;20087;-49
2023/12/25 13:37:31;;;;;;;7.88;7.18;;;;;;;18.28;28.71;97393.59;10317258;28;20891;-50
2023/12/25 13:42:30;;;;;;;8.40;7.60;;;;;;;18.21;29.40;97410.50;10327970;28;20049;-48
2023/12/25 13:47:30;;;;;;;7.88;6.93;;;;;;;18.10;28.81;97387.25;10330549;28;20571;-52
2023/12/25 13:52:29;;;;;;;8.52;7.57;;;;;;;17.98;28.81;97383.31;10330762;28;20049;-52
2023/12/25 13:57:28;;;;;;;7.85;7.03;;;;;;;17.57;29.33;97333.16;10328933;28;20037;-50
2023/12/25 14:02:27;;;;;;;10.15;7.25;;;;;;;17.82;29.12;97395.25;10329391;28;20040;-51
2023/12/25 14:07:26;;;;;;;8.48;7.25;;;;;;;17.69;29.49;97400.94;10330065;28;20052;-51
2023/12/25 14:12:25;;;;;;;8.23;7.43;;;;;;;17.47;29.48;97371.09;10330609;28;20028;-50
2023/12/25 14:17:23;;;;;;;;;;;;;;;17.45;29.37;97407.91;10330502;28;20021;-50
2023/12/25 14:22:22;;;;;;;7.40;6.70;;;;;;;17.37;29.34;97394.16;10327242;28;19924;-52
2023/12/25 14:27:21;;;;;;;;;;;;;;;17.15;29.04;97388.81;10343052;28;20069;-50
2023/12/25 14:32:20;;;;;;;9.17;6.80;;;;;;;16.92;29.13;97358.09;10328841;28;19919;-51
2023/12/25 14:37:19;;;;;;;;;;;;;;;17.16;29.19;97426.34;10330068;28;20040;-50
2023/12/25 14:42:18;;;;;;;9.63;7.20;;;;;;;17.03;29.25;97404.94;10325569;28;19943;-51
2023/12/25 14:47:17;;;;;;;10.98;7.75;;;;;;;16.87;29.63;97405.41;10327462;28;20121;-49
2023/12/25 14:52:16;;;;;;;12.27;8.95;;;;;;;16.29;29.50;97360.03;10325396;28;20842;-50
2023/12/25 14:57:15;;;;;;;;;;;;;;;16.48;29.80;97429.28;10329738;28;20025;-50
2023/12/25 15:02:14;;;;;;;15.90;9.32;;;;;;;16.49;30.11;97451.97;10327703;28;19913;-50
2023/12/25 15:07:13;;;;;;;;;;;;;;;16.28;30.64;97436.88;10324454;28;20029;-51
2023/12/25 15:12:12;;;;;;;9.90;7.68;;;;;;;15.90;30.93;97410.00;10327371;28;19913;-51
2023/12/25 15:17:10;;;;;;;;;;;;;;;15.97;30.96;97444.72;10327468;28;20052;-51
2023/12/25 15:22:09;;;;;;;11.43;9.52;;;;;;;15.81;31.12;97439.03;10328562;28;20840;-50
2023/12/25 15:27:08;;;;;;;;;;;;;;;15.99;30.72;97458.63;10328521;28;20554;-50
2023/12/25 15:32:07;;;;;;;9.73;7.68;;;;;;;15.86;30.41;97442.44;10316117;28;19917;-49
2023/12/25 15:37:06;;;;;;;;;;;;;;;16.05;30.45;97467.19;10322134;28;20075;-50
2023/12/25 15:42:05;;;;;;;11.00;7.47;;;;;;;15.89;30.73;97437.09;10322868;28;19917;-50
2023/12/25 15:47:06;;;;;;;24.52;15.98;;;;;;;15.76;32.04;97433.06;10324299;28;20083;-52
2023/12/25 15:52:05;;;;;;;19.00;14.15;;;;;;;15.48;32.59;97440.78;10322577;28;20064;-51
2023/12/25 15:57:04;;;;;;;23.35;16.85;;;;;;;15.16;34.02;97463.34;10318965;28;20108;-51
2023/12/25 16:02:04;;;;;;;;;;;;;;;14.99;34.73;97495.97;10323576;28;20019;-51
2023/12/25 16:07:03;;;;;;;22.53;18.00;;;;;;;14.44;35.24;97471.00;10328142;28;19967;-49
2023/12/25 16:12:02;;;;;;;17.33;13.88;;;;;;;14.30;35.42;97493.94;10326444;28;20060;-51
2023/12/25 16:17:06;;;;;;;16.67;14.20;;;;;;;13.93;36.10;97489.41;10326264;28;20056;-50
2023/12/25 16:22:05;;;;;;;25.88;17.77;;;;;;;13.74;36.94;97499.34;10324364;28;20107;-52
2023/12/25 16:27:04;;;;;;;19.20;13.57;;;;;;;13.26;36.98;97458.41;10322458;28;20025;-50
2023/12/25 16:32:03;;;;;;;;;;;;;;;13.43;37.31;97523.28;10324633;28;20117;-51
2023/12/25 16:37:02;;;;;;;23.33;17.30;;;;;;;12.13;37.81;97351.59;10319576;28;19913;-50
2023/12/25 16:42:01;;;;;;;23.90;17.65;;;;;;;12.79;37.90;97478.25;10324238;28;20452;-51
2023/12/25 16:47:00;;;;;;;20.42;16.77;;;;;;;12.35;38.52;97445.00;10325580;28;20156;-51
2023/12/25 16:51:59;;;;;;;45.45;25.08;;;;;;;12.17;38.95;97448.66;10325499;28;20064;-51
2023/12/25 16:56:58;;;;;;;26.85;19.20;;;;;;;12.48;39.22;97529.84;10324692;28;20033;-51
2023/12/25 17:01:57;;;;;;;19.33;14.65;;;;;;;11.70;39.11;97417.13;10322082;28;20714;-50
2023/12/25 17:06:56;;;;;;;19.30;14.88;;;;;;;12.54;38.89;97552.34;10322428;28;20021;-50
2023/12/25 17:11:55;;;;;;;25.70;16.40;;;;;;;12.01;38.82;97469.63;10323096;28;20029;-50
2023/12/25 17:16:55;;;;;;;22.58;16.77;;;;;;;12.38;38.80;97562.06;10324603;28;20072;-50
2023/12/25 17:21:58;;;;;;;22.23;15.68;;;;;;;12.32;38.63;97554.31;10336826;28;20126;-51
2023/12/25 17:26:57;;;;;;;21.75;15.02;;;;;;;12.20;38.94;97531.88;10365178;28;20111;-50
2023/12/25 17:31:56;;;;;;;18.95;13.88;;;;;;;12.17;39.01;97547.50;10364667;28;20091;-49
2023/12/25 17:36:55;;;;;;;17.88;13.65;;;;;;;11.73;39.13;97482.06;10380100;28;20067;-52
2023/12/25 17:41:55;;;;;;;37.72;27.40;;;;;;;10.89;41.14;97385.00;10367627;28;20056;-52
2023/12/25 17:46:54;;;;;;;31.50;23.48;;;;;;;11.78;41.00;97560.03;10362546;28;20075;-50
2023/12/25 17:51:53;;;;;;;41.55;28.80;;;;;;;11.55;40.88;97529.91;10359822;28;20096;-50
2023/12/25 17:56:52;;;;;;;31.38;23.27;;;;;;;11.48;42.02;97545.53;10386328;28;20060;-50
2023/12/25 18:01:51;;;;;;;33.97;22.73;;;;;;;11.39;41.86;97549.94;10363255;28;20052;-49
2023/12/25 18:06:50;;;;;;;19.20;14.98;;;;;;;11.23;41.77;97549.19;10360861;28;20113;-50
2023/12/25 18:11:49;;;;;;;27.92;19.42;;;;;;;11.32;42.33;97579.44;10373024;28;20021;-49
2023/12/25 18:16:48;;;;;;;43.38;31.00;;;;;;;11.13;42.47;97594.28;10364362;28;20041;-50
2023/12/25 18:21:47;;;;;;;38.55;26.15;;;;;;;10.78;42.92;97560.69;10364015;28;20096;-50
2023/12/25 18:26:46;;;;;;;36.72;22.65;;;;;;;10.83;42.92;97584.91;10369906;28;20512;-49
2023/12/25 18:31:45;;;;;;;56.80;40.05;;;;;;;10.65;43.63;97587.56;10363894;28;20408;-50
2023/12/25 18:36:44;;;;;;;34.85;22.88;;;;;;;10.16;45.67;97563.50;10371346;28;20056;-49
2023/12/25 18:41:43;;;;;;;41.60;29.40;;;;;;;10.39;44.92;97617.06;10371397;28;20066;-51
2023/12/25 18:46:43;;;;;;;130.10;62.80;;;;;;;10.02;44.94;97564.41;10369589;28;20025;-50
2023/12/25 18:51:42;;;;;;;49.83;34.05;;;;;;;9.73;45.48;97548.03;10371451;28;20059;-50
2023/12/25 18:56:41;;;;;;;51.15;32.80;;;;;;;9.73;45.57;97561.00;10375761;28;20108;-49
2023/12/25 19:01:41;;;;;;;37.13;24.88;;;;;;;10.01;45.48;97610.22;10368973;28;20044;-52
2023/12/25 19:06:40;;;;;;;41.38;31.00;;;;;;;10.08;45.51;97643.03;10370161;28;20060;-49
2023/12/25 19:11:39;;;;;;;40.60;30.35;;;;;;;9.61;45.68;97570.50;10363758;28;20033;-50
2023/12/25 19:16:40;;;;;;;33.20;23.83;;;;;;;9.70;45.59;97592.09;10365917;28;20419;-51
2023/12/25 19:21:39;;;;;;;31.77;22.20;;;;;;;9.59;46.19;97604.19;10366025;28;20132;-52
2023/12/25 19:26:39;;;;;;;23.35;16.38;;;;;;;9.53;46.50;97617.13;10373147;28;20029;-50
2023/12/25 19:31:38;;;;;;;33.70;20.83;;;;;;;9.50;46.08;97598.97;10370661;28;20132;-50
2023/12/25 19:36:37;;;;;;;60.58;37.63;;;;;;;9.17;47.56;97600.63;10381456;28;20040;-50
2023/12/25 19:41:40;;;;;;;55.30;33.80;;;;;;;9.56;46.95;97641.31;10391346;28;20387;-50
2023/12/25 19:46:39;;;;;;;85.53;43.42;;;;;;;9.46;47.73;97644.72;10378868;28;20079;-51
2023/12/25 19:51:38;;;;;;;76.45;43.30;;;;;;;8.99;47.71;97566.94;10365388;28;20032;-49
2023/12/25 19:56:37;;;;;;;64.10;37.50;;;;;;;9.42;48.19;97662.84;10365212;28;20064;-50
2023/12/25 20:01:37;;;;;;;26.27;16.92;;;;;;;9.22;47.30;97640.34;10365991;28;20025;-50
2023/12/25 20:06:36;;;;;;;22.10;13.07;;;;;;;8.20;46.82;97463.28;10368511;28;20052;-51
2023/12/25 20:11:35;;;;;;;51.28;23.20;;;;;;;9.41;46.95;97664.56;10363137;28;20040;-49
2023/12/25 20:16:35;;;;;;;24.70;15.15;;;;;;;9.48;47.36;97662.88;10366598;28;20558;-50
2023/12/25 20:21:34;;;;;;;70.90;33.58;;;;;;;9.28;47.27;97640.41;10383498;28;20558;-50
2023/12/25 20:26:34;;;;;;;42.35;24.40;;;;;;;9.16;48.11;97661.06;10366481;28;20515;-50
2023/12/25 20:31:33;;;;;;;32.83;19.58;;;;;;;9.27;48.09;97702.50;10365432;28;20124;-49
2023/12/25 20:36:32;;;;;;;50.45;30.25;;;;;;;9.21;48.44;97697.28;10364161;28;20029;-49
2023/12/25 20:41:31;;;;;;;49.03;29.23;;;;;;;8.65;49.49;97618.59;10369938;28;20021;-50
2023/12/25 20:46:30;;;;;;;45.60;28.33;;;;;;;8.67;49.45;97647.91;10367575;28;20056;-48
2023/12/25 20:51:29;;;;;;;53.05;33.13;;;;;;;8.56;49.87;97652.16;10365099;28;20103;-50
2023/12/25 20:56:28;;;;;;;43.22;29.80;;;;;;;8.72;49.83;97687.59;10343932;28;20048;-52
2023/12/25 21:01:28;;;;;;;;;;;;;;;8.49;50.92;97709.03;10364683;28;20060;-50
2023/12/25 21:06:26;;;;;;;61.65;40.70;;;;;;;8.35;50.60;97666.69;10364346;28;19952;-50
2023/12/25 21:11:27;;;;;;;76.03;47.58;;;;;;;8.50;51.25;97695.25;10357755;28;20041;-49
2023/12/25 21:16:26;;;;;;;70.10;42.45;;;;;;;8.24;51.38;97678.69;10363006;28;20128;-51
2023/12/25 21:21:25;;;;;;;80.20;44.15;;;;;;;7.95;52.59;97681.06;10361214;28;20029;-49
2023/12/25 21:26:24;;;;;;;95.22;48.25;;;;;;;8.05;53.38;97691.47;10363384;28;20029;-50
2023/12/25 21:31:23;;;;;;;;;;;;;;;7.99;53.05;97706.94;10363290;28;20052;-50
2023/12/25 21:36:22;;;;;;;82.32;48.95;;;;;;;7.82;53.98;97708.50;10364247;28;19921;-49
2023/12/25 21:41:21;;;;;;;;;;;;;;;7.79;53.91;97706.75;10361719;28;20053;-51
2023/12/25 21:46:20;;;;;;;60.67;34.35;;;;;;;7.60;54.02;97700.53;10360683;28;19927;-49
2023/12/25 21:51:19;;;;;;;57.53;31.30;;;;;;;7.33;54.15;97671.81;10361643;28;20568;-51
2023/12/25 21:56:18;;;;;;;56.60;30.52;;;;;;;7.38;54.32;97706.28;10358589;28;20374;-49
2023/12/25 22:01:17;;;;;;;143.95;68.70;;;;;;;6.92;54.70;97660.19;10364852;28;20108;-49
2023/12/25 22:06:16;;;;;;;80.13;40.67;;;;;;;6.87;55.17;97656.72;10374099;28;20112;-49
2023/12/25 22:11:15;;;;;;;50.60;27.70;;;;;;;7.06;55.37;97705.94;10369477;28;20036;-50
2023/12/25 22:16:16;;;;;;;110.88;49.90;;;;;;;7.11;55.01;97723.19;10369728;28;20858;-49
2023/12/25 22:21:15;;;;;;;83.97;44.17;;;;;;;6.52;57.01;97649.38;10369533;28;20080;-50
2023/12/25 22:26:15;;;;;;;61.53;32.35;;;;;;;6.32;56.79;97632.78;10367185;28;20112;-49
2023/12/25 22:31:14;;;;;;;58.33;33.47;;;;;;;6.40;57.53;97646.66;10368259;28;20060;-50
2023/12/25 22:36:13;;;;;;;66.28;38.35;;;;;;;6.80;56.98;97709.06;10368213;28;20119;-51
2023/12/25 22:41:12;;;;;;;91.32;49.30;;;;;;;6.69;58.26;97719.22;10368612;28;20098;-50
2023/12/25 22:46:11;;;;;;;79.80;45.45;;;;;;;6.68;58.60;97725.25;10367398;28;20560;-52
2023/12/25 22:51:10;;;;;;;86.28;48.70;;;;;;;6.55;58.25;97703.56;10349659;28;20577;-52
2023/12/25 22:56:09;;;;;;;86.13;45.28;;;;;;;6.50;58.71;97694.03;10367878;28;20549;-50
2023/12/25 23:01:08;;;;;;;73.43;40.67;;;;;;;6.56;58.85;97701.84;10367086;28;20115;-49
2023/12/25 23:06:07;;;;;;;75.75;44.13;;;;;;;6.46;58.43;97689.69;10368180;28;20013;-49
2023/12/25 23:11:06;;;;;;;75.32;43.10;;;;;;;6.30;58.97;97663.66;10366236;28;20832;-50
2023/12/25 23:16:06;;;;;;;87.07;47.65;;;;;;;6.14;59.61;97653.97;10367109;28;20033;-49
2023/12/25 23:21:05;;;;;;;95.97;54.03;;;;;;;5.74;60.81;97610.50;10365179;28;20156;-50